Time;durP1;ratioP1;P1;durP2;ratioP2;P2;SDS_P1;SDS_P2;PMS_P1;PMS_P2;Temp;Humidity;BMP_temperature;BMP_pressure;BME280_temperature;BME280_humidity;BME280_pressure;Samples;Min_cycle;Max_cycle;Signal;HPM_P1;HPM_P2
2022/07/06 00:01:38;;;;;;;1999.90;999.90;;;14.30;99.90;;;;;;5013085;28;20176;-73
2022/07/06 00:04:04;;;;;;;1999.90;999.90;;;14.20;99.90;;;;;;5013454;28;20190;-73
2022/07/06 00:06:30;;;;;;;1999.90;999.90;;;14.20;99.90;;;;;;5013242;28;20466;-73
2022/07/06 00:08:56;;;;;;;1999.90;999.90;;;14.10;99.90;;;;;;5013591;28;20436;-73
2022/07/06 00:11:22;;;;;;;1999.90;999.90;;;14.00;99.90;;;;;;5013264;28;20891;-73
2022/07/06 00:13:48;;;;;;;1999.90;999.90;;;14.00;99.90;;;;;;5013145;28;20212;-73
2022/07/06 00:16:13;;;;;;;1999.90;999.90;;;14.00;99.90;;;;;;5012894;28;20458;-73
2022/07/06 00:18:39;;;;;;;1999.90;999.90;;;13.90;99.90;;;;;;5013149;28;20410;-73
2022/07/06 00:21:05;;;;;;;1999.90;999.90;;;13.90;99.90;;;;;;5013371;28;20692;-73
2022/07/06 00:23:30;;;;;;;1999.90;999.90;;;13.80;99.90;;;;;;5013452;28;20246;-73
2022/07/06 00:25:56;;;;;;;1999.90;999.90;;;13.70;99.90;;;;;;5012937;28;20226;-73
2022/07/06 00:28:22;;;;;;;1999.90;999.90;;;13.70;99.90;;;;;;5013016;28;20178;-73
2022/07/06 00:30:47;;;;;;;1999.90;999.90;;;13.70;99.90;;;;;;5013280;28;20591;-73
2022/07/06 00:33:13;;;;;;;1999.90;999.90;;;13.70;99.90;;;;;;5013357;28;20174;-73
2022/07/06 00:35:39;;;;;;;1999.90;999.90;;;13.70;99.90;;;;;;5012543;28;20166;-73
2022/07/06 00:38:04;;;;;;;1999.90;999.90;;;13.60;99.90;;;;;;5013238;28;20171;-73
2022/07/06 00:40:30;;;;;;;1999.90;999.90;;;13.60;99.90;;;;;;5013009;28;20241;-73
2022/07/06 00:42:56;;;;;;;1999.90;999.90;;;13.60;99.90;;;;;;5013015;28;20166;-73
2022/07/06 00:45:22;;;;;;;1999.90;999.90;;;13.50;99.90;;;;;;5016006;28;20402;-73
2022/07/06 00:47:48;;;;;;;1999.90;999.90;;;13.50;99.90;;;;;;5015607;28;20556;-73
2022/07/06 00:50:22;;;;;;;1999.90;999.90;;;13.40;99.90;;;;;;5015892;28;20409;-73
2022/07/06 00:53:00;;;;;;;1999.90;999.90;;;13.30;99.90;;;;;;5016064;28;20164;-73
2022/07/06 00:55:29;;;;;;;1999.90;999.90;;;13.30;99.90;;;;;;5015584;28;20404;-73
2022/07/06 00:57:55;;;;;;;1999.90;999.90;;;13.30;99.90;;;;;;5015322;28;20425;-73
2022/07/06 01:00:23;;;;;;;1999.90;999.90;;;13.30;99.90;;;;;;5015730;28;20462;-73
2022/07/06 01:02:49;;;;;;;1999.90;999.90;;;13.30;99.90;;;;;;5016082;28;20808;-73
2022/07/06 01:05:15;;;;;;;1999.90;999.90;;;13.20;99.90;;;;;;5016158;28;20401;-73
2022/07/06 01:07:43;;;;;;;1999.90;999.90;;;13.20;99.90;;;;;;5015553;28;20432;-73
2022/07/06 01:10:11;;;;;;;1999.90;999.90;;;13.20;99.90;;;;;;5016130;28;20432;-73
2022/07/06 01:12:38;;;;;;;1999.90;999.90;;;13.20;99.90;;;;;;5016039;28;20455;-73
2022/07/06 01:15:05;;;;;;;1999.90;999.90;;;13.10;99.90;;;;;;5015780;28;20456;-73
2022/07/06 01:17:32;;;;;;;1999.90;999.90;;;13.10;99.90;;;;;;5015280;28;20463;-73
2022/07/06 01:20:04;;;;;;;1999.90;999.90;;;13.00;99.90;;;;;;4998073;28;20421;-73
2022/07/06 01:22:30;;;;;;;1999.90;999.90;;;13.00;99.90;;;;;;5015555;28;20400;-73
2022/07/06 01:24:55;;;;;;;1999.90;999.90;;;12.90;99.90;;;;;;5015348;28;20954;-73
2022/07/06 01:27:21;;;;;;;1999.90;999.90;;;12.90;99.90;;;;;;5014880;28;20191;-73
2022/07/06 01:29:46;;;;;;;1999.90;999.90;;;12.90;99.90;;;;;;5015490;28;20171;-73
2022/07/06 01:32:12;;;;;;;1999.90;999.90;;;12.80;99.90;;;;;;5015528;28;20298;-73
2022/07/06 01:34:38;;;;;;;1999.90;999.90;;;12.80;99.90;;;;;;4997654;28;20184;-73
2022/07/06 01:37:03;;;;;;;1999.90;999.90;;;12.80;99.90;;;;;;5015230;28;20229;-73
2022/07/06 01:39:29;;;;;;;1999.90;999.90;;;12.80;99.90;;;;;;5015454;28;20172;-73
2022/07/06 01:41:54;;;;;;;1999.90;999.90;;;12.80;99.90;;;;;;5015171;28;20693;-73
2022/07/06 01:44:20;;;;;;;1999.90;999.90;;;12.80;99.90;;;;;;5014957;28;20167;-73
2022/07/06 01:46:45;;;;;;;1999.90;999.90;;;12.80;99.90;;;;;;5015023;28;20213;-73
2022/07/06 01:49:11;;;;;;;1999.90;999.90;;;12.80;99.90;;;;;;4997914;28;20230;-73
2022/07/06 01:51:37;;;;;;;1999.90;999.90;;;12.80;99.90;;;;;;5015329;28;20172;-73
2022/07/06 01:54:02;;;;;;;1999.90;999.90;;;12.70;99.90;;;;;;5015194;28;20170;-73
2022/07/06 01:56:28;;;;;;;1999.90;999.90;;;12.70;99.90;;;;;;5014797;28;20210;-73
2022/07/06 01:58:53;;;;;;;1999.90;999.90;;;12.70;99.90;;;;;;5015245;28;20173;-73
2022/07/06 02:01:20;;;;;;;1999.90;999.90;;;12.60;99.90;;;;;;5015719;28;20194;-73
2022/07/06 02:03:46;;;;;;;1999.90;999.90;;;12.60;99.90;;;;;;5015578;28;20166;-73
2022/07/06 02:06:12;;;;;;;1999.90;999.90;;;12.60;99.90;;;;;;4997565;28;20435;-73
2022/07/06 02:08:38;;;;;;;1999.90;999.90;;;12.70;99.90;;;;;;5015489;28;20777;-73
2022/07/06 02:11:05;;;;;;;1999.90;999.90;;;12.70;99.90;;;;;;5015410;28;20494;-73
2022/07/06 02:13:31;;;;;;;1999.90;999.90;;;12.70;99.90;;;;;;5015270;28;20822;-73
2022/07/06 02:15:57;;;;;;;1999.90;999.90;;;12.60;99.90;;;;;;5014905;28;20448;-73
2022/07/06 02:18:23;;;;;;;1999.90;999.90;;;12.60;99.90;;;;;;5015388;28;20170;-73
2022/07/06 02:20:48;;;;;;;1999.90;999.90;;;12.50;99.90;;;;;;5014845;28;20406;-73
2022/07/06 02:23:14;;;;;;;1999.90;999.90;;;12.50;99.90;;;;;;5013131;28;20174;-73
2022/07/06 02:25:40;;;;;;;1999.90;999.90;;;12.50;99.90;;;;;;4995323;28;20166;-73
2022/07/06 02:28:06;;;;;;;1999.90;999.90;;;12.50;99.90;;;;;;5012837;28;20216;-73
2022/07/06 02:30:31;;;;;;;1999.90;999.90;;;12.50;99.90;;;;;;5013195;28;20166;-73
2022/07/06 02:32:57;;;;;;;1999.90;999.90;;;12.60;99.90;;;;;;5013194;28;20172;-72
2022/07/06 02:35:22;;;;;;;1999.90;999.90;;;12.60;99.90;;;;;;5013192;28;20175;-71
2022/07/06 02:37:48;;;;;;;1999.90;999.90;;;12.70;99.90;;;;;;5012693;28;20615;-72
2022/07/06 02:40:14;;;;;;;1999.90;999.90;;;12.60;99.90;;;;;;5012999;28;20172;-72
2022/07/06 02:42:39;;;;;;;1999.90;999.90;;;12.60;99.90;;;;;;5012948;28;20169;-72
2022/07/06 02:45:06;;;;;;;1999.90;999.90;;;12.60;99.90;;;;;;5012992;28;20168;-72
2022/07/06 02:47:31;;;;;;;1999.90;999.90;;;12.70;99.90;;;;;;5012427;28;20219;-72
2022/07/06 02:49:57;;;;;;;1999.90;999.90;;;12.60;99.90;;;;;;4995411;28;20425;-72
2022/07/06 02:52:23;;;;;;;1999.90;999.90;;;12.50;99.90;;;;;;5012894;28;20181;-72
2022/07/06 02:54:49;;;;;;;1999.90;999.90;;;12.30;99.90;;;;;;5012742;28;20258;-72
2022/07/06 02:57:15;;;;;;;1999.90;999.90;;;12.30;99.90;;;;;;5012343;28;20225;-72
2022/07/06 02:59:41;;;;;;;1999.90;999.90;;;12.20;99.90;;;;;;5012713;28;20400;-72
2022/07/06 03:02:07;;;;;;;1999.90;999.90;;;12.10;99.90;;;;;;5012641;28;20962;-72
2022/07/06 03:04:33;;;;;;;1999.90;999.90;;;12.00;99.90;;;;;;5012619;28;20242;-72
2022/07/06 03:06:59;;;;;;;1999.90;999.90;;;12.00;99.90;;;;;;5011843;28;20420;-72
2022/07/06 03:09:25;;;;;;;1999.90;999.90;;;11.90;99.90;;;;;;5012552;28;20961;-72
2022/07/06 03:11:50;;;;;;;1999.90;999.90;;;11.80;99.90;;;;;;5012497;28;20170;-72
2022/07/06 03:14:16;;;;;;;1999.90;999.90;;;11.80;99.90;;;;;;5012565;28;20177;-72
2022/07/06 03:16:42;;;;;;;1999.90;999.90;;;11.80;99.90;;;;;;5012047;28;20690;-72
2022/07/06 03:19:07;;;;;;;1999.90;999.90;;;11.80;99.90;;;;;;5012562;28;20231;-72
2022/07/06 03:21:33;;;;;;;1999.90;999.90;;;11.80;99.90;;;;;;5012421;28;20166;-72
2022/07/06 03:23:59;;;;;;;1999.90;999.90;;;11.70;99.90;;;;;;5012355;28;20212;-73
2022/07/06 03:26:24;;;;;;;1999.90;999.90;;;11.80;99.90;;;;;;5012054;28;20709;-72
2022/07/06 03:28:50;;;;;;;1999.90;999.90;;;11.80;99.90;;;;;;5012329;28;20598;-72
2022/07/06 03:31:16;;;;;;;1999.90;999.90;;;11.90;99.90;;;;;;5012323;28;20580;-72
2022/07/06 03:33:41;;;;;;;1999.90;999.90;;;12.00;99.90;;;;;;5012321;28;20539;-73
2022/07/06 03:36:07;;;;;;;1999.90;999.90;;;12.00;99.90;;;;;;5011820;28;20605;-72
2022/07/06 03:38:33;;;;;;;1999.90;999.90;;;12.10;99.90;;;;;;5012208;28;20174;-72
2022/07/06 03:40:59;;;;;;;1999.90;999.90;;;12.10;99.90;;;;;;5012179;28;20643;-73
2022/07/06 03:43:25;;;;;;;1999.90;999.90;;;12.10;99.90;;;;;;5012227;28;20396;-72
2022/07/06 03:45:51;;;;;;;1999.90;999.90;;;12.10;99.90;;;;;;5011896;28;20169;-73
2022/07/06 03:48:17;;;;;;;1999.90;999.90;;;12.00;99.90;;;;;;5012568;28;20577;-72
2022/07/06 03:50:43;;;;;;;1999.90;999.90;;;12.10;99.90;;;;;;5012157;28;20404;-72
2022/07/06 03:53:09;;;;;;;1999.90;999.90;;;12.10;99.90;;;;;;5012092;28;20173;-73
2022/07/06 03:55:34;;;;;;;1999.90;999.90;;;12.10;99.90;;;;;;5012020;28;20847;-73
2022/07/06 03:58:00;;;;;;;1999.90;999.90;;;12.20;99.90;;;;;;5011838;28;20211;-73
2022/07/06 04:00:25;;;;;;;1999.90;999.90;;;12.20;99.90;;;;;;5012037;28;20219;-73
2022/07/06 04:02:51;;;;;;;1999.90;999.90;;;12.20;99.90;;;;;;5012100;28;20659;-73
2022/07/06 04:05:20;;;;;;;1999.90;999.90;;;12.30;99.90;;;;;;5012027;28;20171;-73
2022/07/06 04:07:47;;;;;;;1999.90;999.90;;;12.40;99.90;;;;;;5011776;28;20186;-73
2022/07/06 04:10:13;;;;;;;1999.90;999.90;;;12.40;99.90;;;;;;5011988;28;20433;-72
2022/07/06 04:12:43;;;;;;;1999.90;999.90;;;12.40;99.90;;;;;;5011974;28;20938;-72
2022/07/06 04:15:10;;;;;;;1999.90;999.90;;;12.50;99.90;;;;;;5011949;28;20783;-73
2022/07/06 04:17:51;;;;;;;1999.90;999.90;;;12.50;99.90;;;;;;5012297;28;20450;-73
2022/07/06 04:20:17;;;;;;;1999.90;999.90;;;12.50;99.90;;;;;;5016428;28;20434;-73
2022/07/06 04:22:43;;;;;;;1999.90;999.90;;;12.50;99.90;;;;;;5016310;28;20401;-73
2022/07/06 04:25:09;;;;;;;1999.90;999.90;;;12.50;99.90;;;;;;5016308;28;20492;-73
2022/07/06 04:27:35;;;;;;;1999.90;999.90;;;12.50;99.90;;;;;;5016315;28;20595;-73
2022/07/06 04:30:02;;;;;;;1999.90;999.90;;;12.50;99.90;;;;;;5016264;28;20433;-73
2022/07/06 04:32:28;;;;;;;1999.90;999.90;;;12.40;99.90;;;;;;5016050;28;20408;-73
2022/07/06 04:34:53;;;;;;;1999.90;999.90;;;12.40;99.90;;;;;;5015866;28;20415;-73
2022/07/06 04:37:19;;;;;;;1999.90;999.90;;;12.50;99.90;;;;;;5015656;28;20253;-73
2022/07/06 04:39:45;;;;;;;1999.90;999.90;;;12.50;99.90;;;;;;5015674;28;20175;-73
2022/07/06 04:42:11;;;;;;;1999.90;999.90;;;12.50;99.90;;;;;;5015736;28;20409;-73
2022/07/06 04:44:36;;;;;;;1999.90;999.90;;;12.50;99.90;;;;;;5015803;28;20172;-73
2022/07/06 04:47:02;;;;;;;1999.90;999.90;;;12.60;99.90;;;;;;5015490;28;20244;-73
2022/07/06 04:49:27;;;;;;;1999.90;999.90;;;12.60;99.90;;;;;;5015614;28;20623;-73
2022/07/06 04:51:53;;;;;;;1999.90;999.90;;;12.60;99.90;;;;;;5015690;28;20167;-73
2022/07/06 04:54:19;;;;;;;1999.90;999.90;;;12.70;99.90;;;;;;5015714;28;20166;-73
2022/07/06 04:56:46;;;;;;;1999.90;999.90;;;12.80;99.90;;;;;;5015331;28;20739;-73
2022/07/06 04:59:12;;;;;;;1999.90;999.90;;;12.80;99.90;;;;;;5015645;28;20163;-73
2022/07/06 05:01:38;;;;;;;1999.90;999.90;;;13.00;99.90;;;;;;5015513;28;20809;-73
2022/07/06 05:04:04;;;;;;;1999.90;999.90;;;13.00;99.90;;;;;;5015169;28;20256;-73
2022/07/06 05:06:29;;;;;;;1999.90;999.90;;;13.20;99.90;;;;;;5014942;28;20566;-73
2022/07/06 05:08:55;;;;;;;1999.90;999.90;;;13.30;99.90;;;;;;5015574;28;20411;-73
2022/07/06 05:11:21;;;;;;;1999.90;999.90;;;13.30;99.90;;;;;;5015556;28;20171;-73
2022/07/06 05:13:46;;;;;;;1999.90;999.90;;;13.50;99.90;;;;;;5015205;28;20173;-73
2022/07/06 05:16:12;;;;;;;1999.90;999.90;;;13.70;99.90;;;;;;5014618;28;20206;-73
2022/07/06 05:18:37;;;;;;;1999.90;999.90;;;13.70;99.90;;;;;;5014895;28;20166;-73
2022/07/06 05:21:03;;;;;;;1999.90;999.90;;;13.80;99.90;;;;;;5014836;28;20163;-73
2022/07/06 05:23:29;;;;;;;1999.90;999.90;;;13.80;99.90;;;;;;5015209;28;20255;-73
2022/07/06 05:25:54;;;;;;;1999.90;999.90;;;13.80;99.90;;;;;;5014779;28;20181;-73
2022/07/06 05:28:20;;;;;;;1999.90;999.90;;;13.90;99.90;;;;;;5014792;28;20170;-73
2022/07/06 05:30:45;;;;;;;1999.90;999.90;;;14.00;99.90;;;;;;5014252;28;20550;-73
2022/07/06 05:33:11;;;;;;;1999.90;999.90;;;14.10;99.90;;;;;;5014540;28;20204;-73
2022/07/06 05:35:37;;;;;;;1999.90;999.90;;;14.20;99.90;;;;;;5014631;28;20194;-72
2022/07/06 05:38:02;;;;;;;1999.90;999.90;;;14.20;99.90;;;;;;5014051;28;20189;-72
2022/07/06 05:40:28;;;;;;;1999.90;999.90;;;14.20;99.90;;;;;;5014280;28;20177;-73
2022/07/06 05:42:54;;;;;;;1999.90;999.90;;;14.20;99.90;;;;;;5014211;28;20215;-72
2022/07/06 05:45:19;;;;;;;1999.90;999.90;;;14.30;99.90;;;;;;5014109;28;20250;-73
2022/07/06 05:50:30;;;;;;;1999.90;999.90;;;14.50;99.90;;;;;;5014134;28;20179;-72
2022/07/06 05:53:00;;;;;;;1999.90;999.90;;;14.60;99.90;;;;;;5013965;28;20779;-72
2022/07/06 05:55:27;;;;;;;1999.90;999.90;;;14.70;99.90;;;;;;5013893;28;20259;-72
2022/07/06 05:57:56;;;;;;;1999.90;999.90;;;14.70;99.90;;;;;;5013520;28;20867;-73
2022/07/06 06:00:26;;;;;;;1999.90;999.90;;;14.80;99.90;;;;;;5013744;28;20486;-73
2022/07/06 06:02:52;;;;;;;1999.90;999.90;;;14.90;99.90;;;;;;5013757;28;20412;-73
2022/07/06 06:05:19;;;;;;;1999.90;999.90;;;14.90;99.90;;;;;;5013804;28;20410;-72
2022/07/06 06:07:49;;;;;;;1999.90;999.90;;;15.00;99.90;;;;;;5013337;28;20455;-73
2022/07/06 06:10:15;;;;;;;1999.90;999.90;;;15.00;99.90;;;;;;5013691;28;20750;-73
2022/07/06 06:12:41;;;;;;;1999.90;999.90;;;15.00;99.90;;;;;;5013530;28;20411;-73
2022/07/06 06:15:08;;;;;;;1999.90;999.90;;;15.10;99.90;;;;;;5013494;28;20404;-72
2022/07/06 06:17:35;;;;;;;1999.90;999.90;;;15.10;99.90;;;;;;5013170;28;21011;-73
2022/07/06 06:20:01;;;;;;;1999.90;999.90;;;15.20;99.90;;;;;;5013424;28;20412;-73
2022/07/06 06:22:27;;;;;;;1999.90;999.90;;;15.20;99.90;;;;;;5013379;28;20904;-73
2022/07/06 06:24:52;;;;;;;1999.90;999.90;;;15.30;99.90;;;;;;5013420;28;20414;-73
2022/07/06 06:27:18;;;;;;;1999.90;999.90;;;15.30;99.90;;;;;;5013528;28;20201;-73
2022/07/06 06:29:44;;;;;;;1999.90;999.90;;;15.40;99.90;;;;;;5013282;28;20204;-72
2022/07/06 06:32:13;;;;;;;1999.90;999.90;;;15.30;99.90;;;;;;5013177;28;20166;-73
2022/07/06 06:34:41;;;;;;;1999.90;999.90;;;15.40;99.90;;;;;;5013236;28;20222;-72
2022/07/06 06:37:07;;;;;;;1999.90;999.90;;;15.50;99.90;;;;;;5012748;28;20460;-73
2022/07/06 06:39:33;;;;;;;1999.90;999.90;;;15.50;99.90;;;;;;5013149;28;20411;-72
2022/07/06 06:41:58;;;;;;;1999.90;999.90;;;15.50;99.90;;;;;;5012448;28;20668;-72
2022/07/06 06:44:24;;;;;;;1999.90;999.90;;;15.60;99.90;;;;;;5013107;28;20169;-73
2022/07/06 06:46:51;;;;;;;1999.90;999.90;;;15.70;99.90;;;;;;5012707;28;20262;-72
2022/07/06 06:49:17;;;;;;;1999.90;999.90;;;15.80;99.90;;;;;;5013044;28;20202;-73
2022/07/06 06:51:43;;;;;;;1999.90;999.90;;;15.90;99.90;;;;;;5012905;28;20407;-72
2022/07/06 06:54:09;;;;;;;1999.90;999.90;;;16.00;99.90;;;;;;5012798;28;20434;-72
2022/07/06 06:56:35;;;;;;;1999.90;999.90;;;16.00;99.90;;;;;;5012584;28;20458;-72
2022/07/06 06:59:01;;;;;;;1999.90;999.90;;;16.10;99.90;;;;;;5012789;28;20712;-72
2022/07/06 07:01:27;;;;;;;1999.90;999.90;;;16.10;99.90;;;;;;5012764;28;20214;-73
2022/07/06 07:03:54;;;;;;;1999.90;999.90;;;16.20;99.90;;;;;;4995964;28;20441;-73
2022/07/06 07:06:21;;;;;;;1999.90;999.90;;;16.40;99.90;;;;;;5013028;28;20898;-73
2022/07/06 07:08:46;;;;;;;1999.90;999.90;;;16.50;99.90;;;;;;4995733;28;20789;-73
2022/07/06 07:11:12;;;;;;;1999.90;999.90;;;16.30;99.90;;;;;;5013139;28;20396;-73
2022/07/06 07:13:38;;;;;;;1999.90;999.90;;;16.20;99.90;;;;;;5013533;28;20177;-73
2022/07/06 07:16:03;;;;;;;1999.90;999.90;;;16.10;99.90;;;;;;5012726;28;20211;-73
2022/07/06 07:18:29;;;;;;;1999.90;999.90;;;16.10;99.90;;;;;;5009197;28;20176;-70
2022/07/06 07:20:55;;;;;;;1999.90;999.90;;;16.20;99.90;;;;;;5011561;28;20477;-71
2022/07/06 07:23:20;;;;;;;1999.90;999.90;;;16.30;99.90;;;;;;5011395;28;20637;-73
2022/07/06 07:25:46;;;;;;;1999.90;999.90;;;16.40;99.90;;;;;;5010890;28;20257;-70
2022/07/06 07:28:11;;;;;;;1999.90;999.90;;;16.30;99.90;;;;;;5011242;28;20517;-72
2022/07/06 07:30:37;;;;;;;1999.90;999.90;;;16.30;99.90;;;;;;5011166;28;20178;-72
2022/07/06 07:33:03;;;;;;;1999.90;999.90;;;16.30;99.90;;;;;;5011039;28;20205;-74
2022/07/06 07:35:29;;;;;;;1999.90;999.90;;;16.30;99.90;;;;;;5011331;28;20169;-73
2022/07/06 07:37:54;;;;;;;1999.90;999.90;;;16.30;99.90;;;;;;5011156;28;20647;-74
2022/07/06 07:40:20;;;;;;;1999.90;999.90;;;16.30;99.90;;;;;;5011958;28;20459;-73
2022/07/06 07:42:45;;;;;;;1999.90;999.90;;;16.30;99.90;;;;;;5014865;28;20639;-71
2022/07/06 07:45:12;;;;;;;1999.90;999.90;;;16.40;99.90;;;;;;5012287;28;20780;-70
2022/07/06 07:47:38;;;;;;;1999.90;999.90;;;16.40;99.90;;;;;;5012018;28;20711;-70
2022/07/06 07:50:04;;;;;;;1999.90;999.90;;;16.60;99.90;;;;;;5012300;28;20426;-71
2022/07/06 07:52:30;;;;;;;1999.90;999.90;;;16.70;99.90;;;;;;4996019;28;20419;-71
2022/07/06 07:54:55;;;;;;;1999.90;999.90;;;16.80;99.90;;;;;;5016631;28;20404;-70
2022/07/06 07:57:21;;;;;;;1999.90;999.90;;;16.90;99.90;;;;;;4998458;28;20209;-70
2022/07/06 07:59:47;;;;;;;1999.90;999.90;;;16.80;99.90;;;;;;5016431;28;20186;-71
2022/07/06 08:02:12;;;;;;;1999.90;999.90;;;16.70;99.90;;;;;;5016409;28;20174;-71
2022/07/06 08:04:38;;;;;;;1999.90;999.90;;;16.60;99.90;;;;;;5016208;28;20165;-71
2022/07/06 08:07:03;;;;;;;1999.90;999.90;;;16.60;99.90;;;;;;5016036;28;20233;-70
2022/07/06 08:09:29;;;;;;;1999.90;999.90;;;16.60;99.90;;;;;;5015961;28;20170;-71
2022/07/06 08:11:55;;;;;;;1999.90;999.90;;;16.50;99.90;;;;;;5016114;28;20174;-71
2022/07/06 08:14:20;;;;;;;1999.90;999.90;;;16.60;99.90;;;;;;5016376;28;20169;-71
2022/07/06 08:16:46;;;;;;;1999.90;999.90;;;16.70;99.90;;;;;;5015838;28;20250;-71
2022/07/06 08:19:14;;;;;;;1999.90;999.90;;;16.90;99.90;;;;;;5015903;28;20165;-71
2022/07/06 08:21:41;;;;;;;1999.90;999.90;;;17.10;99.90;;;;;;5016009;28;20168;-71
2022/07/06 08:24:07;;;;;;;1999.90;999.90;;;17.10;99.90;;;;;;5015982;28;20921;-70
2022/07/06 08:26:33;;;;;;;1999.90;999.90;;;17.00;99.90;;;;;;5015548;28;20965;-71
2022/07/06 08:28:58;;;;;;;1999.90;999.90;;;17.10;99.90;;;;;;5016180;28;20401;-70
2022/07/06 08:31:25;;;;;;;1999.90;999.90;;;17.20;99.90;;;;;;5015550;28;20414;-71
2022/07/06 08:33:53;;;;;;;1999.90;999.90;;;17.30;99.90;;;;;;5015412;28;20176;-71
2022/07/06 08:36:19;;;;;;;1999.90;999.90;;;17.40;99.90;;;;;;5014830;28;20462;-70
2022/07/06 08:38:44;;;;;;;1999.90;999.90;;;17.40;99.90;;;;;;5015344;28;20431;-71
2022/07/06 08:41:11;;;;;;;1999.90;999.90;;;17.40;99.90;;;;;;5015258;28;20487;-70
2022/07/06 08:43:36;;;;;;;1999.90;999.90;;;17.50;99.90;;;;;;5015270;28;20176;-69
2022/07/06 08:46:02;;;;;;;1999.90;999.90;;;17.50;99.90;;;;;;5014804;28;20783;-70
2022/07/06 08:48:35;;;;;;;1999.90;999.90;;;17.50;99.90;;;;;;5015161;28;20166;-70
2022/07/06 08:51:01;;;;;;;1999.90;999.90;;;17.50;99.90;;;;;;5015642;28;20412;-70
2022/07/06 08:53:27;;;;;;;1999.90;999.90;;;17.40;99.90;;;;;;5015023;28;20962;-71
2022/07/06 08:55:54;;;;;;;1999.90;999.90;;;17.30;99.90;;;;;;5014784;28;20518;-70
2022/07/06 08:58:20;;;;;;;1999.90;999.90;;;17.20;99.90;;;;;;5014798;28;20504;-70
2022/07/06 09:00:46;;;;;;;1999.90;999.90;;;17.00;99.90;;;;;;5014933;28;20440;-69
2022/07/06 09:03:12;;;;;;;1999.90;999.90;;;17.00;99.90;;;;;;5014827;28;20484;-70
2022/07/06 09:05:40;;;;;;;1999.90;999.90;;;17.10;99.90;;;;;;5014052;28;20170;-70
2022/07/06 09:08:06;;;;;;;1999.90;999.90;;;17.10;99.90;;;;;;5014643;28;20490;-70
2022/07/06 09:10:31;;;;;;;1999.90;999.90;;;17.30;99.90;;;;;;5014759;28;20498;-70
2022/07/06 09:13:08;;;;;;;1999.90;999.90;;;17.50;99.90;;;;;;5014734;28;20175;-70
2022/07/06 09:15:38;;;;;;;1999.90;999.90;;;17.60;99.90;;;;;;5014689;28;20696;-71
2022/07/06 09:18:04;;;;;;;1999.90;999.90;;;17.70;99.90;;;;;;5014113;28;20455;-71
2022/07/06 09:20:31;;;;;;;1999.90;999.90;;;17.80;99.90;;;;;;5014776;28;20419;-71
2022/07/06 09:23:06;;;;;;;1999.90;999.90;;;18.10;99.90;;;;;;5014519;28;20410;-70
2022/07/06 09:25:32;;;;;;;1999.90;999.90;;;18.40;99.90;;;;;;5014474;28;20408;-71
2022/07/06 09:27:59;;;;;;;1999.90;999.90;;;18.60;99.90;;;;;;5014113;28;20941;-71
2022/07/06 09:30:26;;;;;;;1999.90;999.90;;;18.90;99.90;;;;;;5015655;28;20408;-70
2022/07/06 09:32:55;;;;;;;1999.90;999.90;;;19.20;99.90;;;;;;5016835;28;20901;-71
2022/07/06 09:35:37;;;;;;;1999.90;999.90;;;19.40;99.90;;;;;;5017163;28;20408;-71
2022/07/06 09:38:05;;;;;;;1999.90;999.90;;;19.50;99.90;;;;;;5016296;28;20980;-71
2022/07/06 09:40:36;;;;;;;1999.90;999.90;;;19.70;99.90;;;;;;5015863;28;20412;-70
2022/07/06 09:43:18;;;;;;;1999.90;999.90;;;20.20;99.90;;;;;;5016539;28;20400;-70
2022/07/06 09:45:50;;;;;;;1999.90;999.90;;;20.60;99.90;;;;;;5016751;28;20438;-70
2022/07/06 09:48:20;;;;;;;1999.90;999.90;;;20.70;99.90;;;;;;5016702;28;20408;-71
2022/07/06 09:50:50;;;;;;;1999.90;999.90;;;20.60;99.90;;;;;;5016816;28;20363;-71
2022/07/06 09:53:17;;;;;;;1999.90;999.90;;;20.50;99.90;;;;;;5016626;28;20412;-70
2022/07/06 09:55:53;;;;;;;1999.90;999.90;;;20.40;99.90;;;;;;5017031;28;20968;-71
2022/07/06 09:58:20;;;;;;;1999.90;999.90;;;20.10;99.90;;;;;;5017647;28;20375;-71
2022/07/06 10:00:46;;;;;;;1999.90;999.90;;;19.70;99.90;;;;;;5017149;28;20404;-71
2022/07/06 10:03:13;;;;;;;1999.90;999.90;;;19.60;99.90;;;;;;5017218;28;20407;-71
2022/07/06 10:05:48;;;;;;;1999.90;999.90;;;19.60;99.90;;;;;;5016237;28;20797;-71
2022/07/06 10:08:15;;;;;;;1999.90;999.90;;;19.80;99.90;;;;;;5016526;28;20403;-71
2022/07/06 10:10:42;;;;;;;1999.90;999.90;;;19.90;99.90;;;;;;5016087;28;20440;-72
2022/07/06 10:13:09;;;;;;;1999.90;999.90;;;19.90;99.90;;;;;;5016185;28;20405;-71
2022/07/06 10:15:37;;;;;;;1999.90;999.90;;;20.10;99.90;;;;;;5015223;28;20931;-71
2022/07/06 10:18:05;;;;;;;1999.90;999.90;;;20.00;99.90;;;;;;5016118;28;20459;-71
2022/07/06 10:20:39;;;;;;;1999.90;999.90;;;19.90;99.90;;;;;;5016268;28;20403;-71
2022/07/06 10:23:06;;;;;;;1999.90;999.90;;;20.00;99.90;;;;;;4999558;28;20414;-71
2022/07/06 10:25:33;;;;;;;1999.90;999.90;;;20.40;99.90;;;;;;5016457;28;20911;-71
2022/07/06 10:28:00;;;;;;;1999.90;999.90;;;20.60;99.90;;;;;;5016614;28;20439;-71
2022/07/06 10:30:27;;;;;;;1999.90;999.90;;;20.80;99.90;;;;;;5016423;28;20909;-71
2022/07/06 10:32:55;;;;;;;1999.90;999.90;;;20.80;99.90;;;;;;5016110;28;20405;-71
2022/07/06 10:35:21;;;;;;;1999.90;999.90;;;21.00;99.90;;;;;;5015954;28;20417;-71
2022/07/06 10:38:07;;;;;;;1999.90;999.90;;;20.70;99.90;;;;;;5015362;28;20455;-71
2022/07/06 10:43:22;;;;;;;1999.90;999.90;;;20.90;97.80;;;;;;5016303;28;20396;-71
2022/07/06 10:45:48;;;;;;;1999.90;999.90;;;20.90;95.60;;;;;;5016048;28;20400;-71
2022/07/06 10:48:17;;;;;;;1999.90;999.90;;;21.10;94.70;;;;;;5014507;28;20162;-71
2022/07/06 10:50:45;;;;;;;1999.90;999.90;;;21.10;94.50;;;;;;5015632;28;20412;-71
2022/07/06 10:53:13;;;;;;;1999.90;999.90;;;21.10;94.10;;;;;;5016114;28;20417;-71
2022/07/06 10:55:43;;;;;;;1999.90;999.90;;;21.50;94.40;;;;;;5016606;28;20446;-71
2022/07/06 10:58:10;;;;;;;1999.90;999.90;;;21.80;91.30;;;;;;5016917;28;20426;-71
2022/07/06 11:00:52;;;;;;;1999.90;999.90;;;21.80;90.60;;;;;;5016392;28;20400;-71
2022/07/06 11:03:34;;;;;;;1999.90;999.90;;;22.00;87.50;;;;;;5016768;28;20401;-71
2022/07/06 11:06:22;;;;;;;1999.90;999.90;;;21.60;88.90;;;;;;4998104;28;20960;-71
2022/07/06 11:08:51;;;;;;;1999.90;999.90;;;21.40;84.80;;;;;;5015028;28;20523;-71
2022/07/06 11:11:23;;;;;;;1999.90;999.90;;;21.40;86.50;;;;;;5015880;28;20543;-71
2022/07/06 11:13:49;;;;;;;1999.90;999.90;;;21.20;85.90;;;;;;5015970;28;20380;-71
2022/07/06 11:16:16;;;;;;;1999.90;999.90;;;21.60;86.70;;;;;;5016296;28;20476;-71
2022/07/06 11:18:47;;;;;;;1999.90;999.90;;;21.70;84.30;;;;;;5016685;28;20445;-71
2022/07/06 11:21:31;;;;;;;1999.90;999.90;;;22.00;82.90;;;;;;5016468;28;20892;-71
2022/07/06 11:23:58;;;;;;;1999.90;999.90;;;22.20;76.90;;;;;;5015333;28;20420;-71
2022/07/06 11:26:24;;;;;;;1999.90;999.90;;;21.90;74.00;;;;;;4997433;28;20420;-71
2022/07/06 11:28:51;;;;;;;1999.90;999.90;;;21.60;72.50;;;;;;5015432;28;20509;-71
2022/07/06 11:31:17;;;;;;;1999.90;999.90;;;21.40;73.20;;;;;;5014572;28;20408;-71
2022/07/06 11:33:47;;;;;;;1999.90;999.90;;;21.10;74.10;;;;;;5015250;28;20413;-71
2022/07/06 11:36:21;;;;;;;1999.90;999.90;;;21.20;75.90;;;;;;5015089;28;20459;-71
2022/07/06 11:38:49;;;;;;;1999.90;999.90;;;21.40;71.90;;;;;;5015259;28;20436;-71
2022/07/06 11:41:16;;;;;;;1999.90;999.90;;;21.60;75.40;;;;;;5015294;28;20376;-71
2022/07/06 11:43:44;;;;;;;1999.90;999.90;;;21.60;71.30;;;;;;5012548;28;20914;-70
2022/07/06 11:46:25;;;;;;;1999.90;999.90;;;21.60;71.40;;;;;;5011657;28;20528;-71
2022/07/06 11:48:56;;;;;;;1999.90;999.90;;;21.90;71.60;;;;;;5012146;28;20391;-71
2022/07/06 11:51:27;;;;;;;1999.90;999.90;;;22.20;71.10;;;;;;5012152;28;20428;-70
2022/07/06 11:53:55;;;;;;;1999.90;999.90;;;22.20;71.80;;;;;;5012172;28;20421;-72
2022/07/06 11:56:25;;;;;;;1999.90;999.90;;;22.20;69.10;;;;;;5011618;28;20433;-71
2022/07/06 11:58:52;;;;;;;1999.90;999.90;;;21.80;69.90;;;;;;5012021;28;20416;-71
2022/07/06 12:01:18;;;;;;;1999.90;999.90;;;21.90;71.60;;;;;;5011979;28;20419;-71
2022/07/06 12:03:44;;;;;;;1999.90;999.90;;;22.40;67.30;;;;;;5011986;28;20871;-71